Time;durP1;ratioP1;P1;durP2;ratioP2;P2;SDS_P1;SDS_P2;PMS_P1;PMS_P2;Temp;Humidity;BMP_temperature;BMP_pressure;BME280_temperature;BME280_humidity;BME280_pressure;Samples;Min_cycle;Max_cycle;Signal;HPM_P1;HPM_P2
2022/04/22 00:00:01;;;;;;;;;12.75;9.00;;;;;15.07;43.89;100076.53;5098304;27;45472;-66
2022/04/22 00:02:26;;;;;;;;;13.25;12.50;;;;;15.03;44.01;100072.41;5099310;27;45781;-66
2022/04/22 00:04:52;;;;;;;;;8.00;8.00;;;;;14.99;44.32;100070.88;5097228;27;45687;-67
2022/04/22 00:07:18;;;;;;;;;12.00;9.25;;;;;14.98;44.80;100070.03;5098188;27;45452;-66
2022/04/22 00:09:43;;;;;;;;;9.50;8.00;;;;;14.91;45.13;100066.06;5098178;27;45326;-66
2022/04/22 00:12:09;;;;;;;;;12.25;10.50;;;;;14.88;44.48;100066.25;5098184;27;45491;-66
2022/04/22 00:14:34;;;;;;;;;15.75;12.75;;;;;14.85;45.02;100069.88;5098154;27;45475;-65
2022/04/22 00:17:00;;;;;;;;;13.75;10.50;;;;;14.85;45.48;100069.88;5097988;27;46276;-66
2022/04/22 00:19:26;;;;;;;;;13.25;10.50;;;;;14.78;45.19;100063.28;5097703;27;45860;-66
2022/04/22 00:21:53;;;;;;;;;12.75;9.75;;;;;14.79;45.33;100062.34;5098034;27;45464;-67
2022/04/22 00:24:19;;;;;;;;;6.25;5.50;;;;;14.77;45.21;100064.22;5097934;27;45495;-67
2022/04/22 00:26:45;;;;;;;;;14.50;9.25;;;;;14.74;45.45;100067.00;5097659;27;46509;-66
2022/04/22 00:29:11;;;;;;;;;13.00;9.00;;;;;14.75;45.71;100068.69;5100423;27;45312;-68
2022/04/22 00:31:36;;;;;;;;;11.25;11.25;;;;;14.73;45.53;100070.56;5101581;27;45260;-65
2022/04/22 00:34:01;;;;;;;;;14.00;11.50;;;;;14.70;45.42;100070.72;5101387;27;45594;-67
2022/04/22 00:36:27;;;;;;;;;14.25;10.50;;;;;14.66;45.68;100065.75;5101068;27;45697;-67
2022/04/22 00:38:52;;;;;;;;;12.75;8.75;;;;;14.61;45.81;100060.75;5101381;27;45416;-67
2022/04/22 00:41:18;;;;;;;;;13.50;9.25;;;;;14.57;45.97;100064.47;5101650;27;45309;-67
2022/04/22 00:43:46;;;;;;;;;12.50;9.25;;;;;14.55;46.39;100068.94;5102726;27;45248;-67
2022/04/22 00:46:12;;;;;;;;;14.75;12.00;;;;;14.52;46.19;100066.50;5102584;27;45520;-67
2022/04/22 00:48:38;;;;;;;;;13.25;10.75;;;;;14.52;46.21;100053.44;5102437;27;45715;-67
2022/04/22 00:51:05;;;;;;;;;10.25;10.25;;;;;14.48;47.15;100051.91;5102313;27;45481;-67
2022/04/22 00:53:31;;;;;;;;;12.75;8.25;;;;;14.48;46.61;100049.31;5092993;27;45349;-66
2022/04/22 00:55:58;;;;;;;;;11.00;9.00;;;;;14.44;46.58;100045.19;5082052;27;47094;-68
2022/04/22 00:58:23;;;;;;;;;12.00;9.25;;;;;14.39;46.92;100047.97;5101327;27;45870;-67
2022/04/22 01:00:49;;;;;;;;;12.75;9.50;;;;;14.40;46.48;100056.66;5102032;27;45919;-68
2022/04/22 01:03:14;;;;;;;;;12.00;6.75;;;;;14.38;47.57;100055.91;5112774;27;45801;-68
2022/04/22 01:11:08;;;;;;;;;12.00;9.25;;;;;14.27;47.16;100044.28;5102479;27;45307;-68
2022/04/22 01:13:34;;;;;;;;;10.25;10.25;;;;;14.22;47.74;100043.69;5102120;27;45527;-68
2022/04/22 01:15:59;;;;;;;;;13.50;10.00;;;;;14.19;47.74;100032.53;5102306;27;46302;-68
2022/04/22 01:18:24;;;;;;;;;9.75;7.00;;;;;14.17;47.76;100037.84;5101947;27;45479;-68
2022/04/22 01:20:50;;;;;;;;;8.50;8.50;;;;;14.14;48.05;100035.41;5101868;27;45326;-68
2022/04/22 01:23:15;;;;;;;;;15.00;10.50;;;;;14.13;48.00;100044.16;5102256;27;45462;-68
2022/04/22 01:25:41;;;;;;;;;13.00;10.50;;;;;14.11;48.31;100039.94;5101853;27;45336;-68
2022/04/22 01:28:09;;;;;;;;;12.00;10.00;;;;;14.11;48.50;100037.34;5090992;27;45675;-68
2022/04/22 01:30:36;;;;;;;;;10.00;9.50;;;;;14.07;48.38;100034.03;5101828;27;45260;-68
2022/04/22 01:33:01;;;;;;;;;12.00;12.00;;;;;14.05;48.59;100038.50;5100937;27;45840;-68
2022/04/22 01:35:26;;;;;;;;;11.50;10.50;;;;;14.02;48.34;100033.44;5101045;27;46470;-68
2022/04/22 01:37:52;;;;;;;;;14.00;11.00;;;;;14.01;48.84;100026.50;5099084;27;45326;-68
2022/04/22 01:40:18;;;;;;;;;12.00;7.25;;;;;13.98;48.67;100024.06;5098703;27;45452;-67
2022/04/22 01:42:44;;;;;;;;;11.50;10.25;;;;;13.97;49.64;100030.22;5099167;27;45308;-67
2022/04/22 01:45:12;;;;;;;;;10.00;10.00;;;;;13.92;49.00;100020.00;5112796;27;45778;-67
2022/04/22 01:47:38;;;;;;;;;12.75;9.75;;;;;13.90;49.04;100016.66;5099304;27;46267;-67
2022/04/22 01:50:04;;;;;;;;;11.00;10.00;;;;;13.87;49.00;100015.97;5099147;27;45554;-67
2022/04/22 01:52:29;;;;;;;;;10.50;10.25;;;;;13.87;49.42;100015.97;5100844;27;45681;-67
2022/04/22 01:54:56;;;;;;;;;12.75;9.25;;;;;13.82;49.00;100018.81;5100141;27;48034;-66
2022/04/22 01:57:21;;;;;;;;;12.00;10.00;;;;;13.81;49.45;100019.72;5100198;27;45713;-67
2022/04/22 01:59:48;;;;;;;;;10.25;9.75;;;;;13.79;49.06;100020.72;5101278;27;45403;-67
2022/04/22 02:02:14;;;;;;;;;12.25;10.75;;;;;13.76;48.99;100013.91;5101558;27;45550;-67
2022/04/22 02:04:40;;;;;;;;;16.00;12.75;;;;;13.73;49.74;100024.50;5101145;27;45477;-67
2022/04/22 02:07:05;;;;;;;;;13.75;10.25;;;;;13.70;49.80;100020.28;5101391;27;45711;-67
2022/04/22 02:09:31;;;;;;;;;11.50;10.75;;;;;13.68;48.56;100011.69;5099992;27;45399;-67
2022/04/22 02:11:57;;;;;;;;;11.50;10.25;;;;;13.65;49.32;100011.03;5099185;27;45617;-67
2022/04/22 02:14:23;;;;;;;;;12.25;12.00;;;;;13.62;49.98;100006.81;5085200;27;46314;-67
2022/04/22 02:16:49;;;;;;;;;11.50;10.75;;;;;13.61;49.49;100012.91;5105775;27;45526;-67
2022/04/22 02:19:14;;;;;;;;;11.50;11.50;;;;;13.57;49.88;100003.56;5099034;27;45447;-67
2022/04/22 02:21:40;;;;;;;;;12.50;12.00;;;;;13.58;49.78;100009.63;5099132;27;45496;-67
2022/04/22 02:24:06;;;;;;;;;10.00;7.00;;;;;13.55;50.17;100015.84;5099732;27;45453;-67
2022/04/22 02:28:31;;;;;;;;;9.75;8.75;;;;;13.51;50.64;100006.50;5101066;27;45300;-67
2022/04/22 02:29:17;;;;;;;;;10.50;8.50;;;;;13.50;50.31;99998.75;5089798;27;45262;-67
2022/04/22 02:31:43;;;;;;;;;15.75;11.00;;;;;13.50;50.46;100001.34;5100909;27;45500;-66
2022/04/22 02:34:09;;;;;;;;;13.75;11.50;;;;;13.46;51.98;99997.22;5100795;27;45561;-66
2022/04/22 02:36:34;;;;;;;;;17.00;12.00;;;;;13.43;50.70;99992.16;5100440;27;45416;-66
2022/04/22 02:38:59;;;;;;;;;11.00;10.50;;;;;13.39;51.58;99999.28;5100781;27;45385;-66
2022/04/22 02:46:52;;;;;;;;;9.00;8.00;;;;;13.26;51.22;99993.84;5100661;27;45247;-65
2022/04/22 02:49:18;;;;;;;;;11.00;9.25;;;;;13.19;50.70;99987.25;5100659;27;45535;-76
2022/04/22 02:51:43;;;;;;;;;12.00;10.50;;;;;13.21;51.80;99989.78;5100729;27;45222;-67
2022/04/22 02:54:08;;;;;;;;;11.00;7.75;;;;;13.19;51.39;99984.63;5100545;27;45947;-67
2022/04/22 02:56:34;;;;;;;;;15.00;12.25;;;;;13.17;51.61;99985.59;5100488;27;45292;-67
2022/04/22 02:59:00;;;;;;;;;11.00;9.25;;;;;13.15;51.40;99984.84;5100702;27;45653;-67
2022/04/22 03:01:26;;;;;;;;;12.75;11.25;;;;;13.08;51.98;99985.16;5114270;27;45363;-66
2022/04/22 03:03:51;;;;;;;;;10.50;10.25;;;;;13.10;52.20;99987.69;5087450;27;46199;-66
2022/04/22 03:06:17;;;;;;;;;9.50;8.75;;;;;13.06;51.79;99983.53;5093364;27;45378;-66
2022/04/22 03:08:42;;;;;;;;;10.00;6.00;;;;;13.03;51.96;99987.16;5093191;27;45312;-67
2022/04/22 03:11:08;;;;;;;;;9.50;9.25;;;;;13.02;51.79;99979.41;5100372;27;45776;-68
2022/04/22 03:13:33;;;;;;;;;12.00;9.25;;;;;13.00;51.99;99981.22;5100005;27;45350;-68
2022/04/22 03:16:01;;;;;;;;;13.50;11.00;;;;;12.96;51.77;99975.31;5099655;27;45356;-68
2022/04/22 03:18:27;;;;;;;;;11.50;11.00;;;;;12.93;53.17;99972.03;5100365;27;45248;-67
2022/04/22 03:20:53;;;;;;;;;16.25;15.75;;;;;12.90;52.20;99980.00;5100476;27;45218;-67
2022/04/22 03:23:18;;;;;;;;;11.50;11.50;;;;;12.86;52.66;99979.31;5100309;27;45300;-66
2022/04/22 03:25:44;;;;;;;;;18.00;11.75;;;;;12.84;53.58;99975.09;5098351;27;45293;-67
2022/04/22 03:28:09;;;;;;;;;15.50;10.50;;;;;12.80;53.89;99974.38;5092851;27;45851;-67
2022/04/22 03:30:34;;;;;;;;;12.75;12.75;;;;;12.78;52.96;99977.06;5097541;27;45482;-66
2022/04/22 03:33:01;;;;;;;;;15.25;11.50;;;;;12.76;53.18;99973.69;5097363;27;46460;-66
2022/04/22 03:35:27;;;;;;;;;13.75;12.25;;;;;12.76;53.80;99973.69;5095977;27;46039;-64
2022/04/22 03:37:53;;;;;;;;;10.75;10.00;;;;;12.74;53.38;99978.13;5094842;27;45610;-67
2022/04/22 03:40:18;;;;;;;;;15.00;12.00;;;;;12.74;53.37;99977.28;5092074;27;45845;-66
2022/04/22 03:42:43;;;;;;;;;23.25;19.25;;;;;12.73;53.46;99971.22;5094018;27;46356;-67
2022/04/22 03:45:09;;;;;;;;;16.00;13.25;;;;;12.73;53.41;99975.59;5098711;27;45370;-68
2022/04/22 03:47:34;;;;;;;;;23.00;16.00;;;;;12.71;53.97;99969.63;5098291;27;45271;-67
2022/04/22 03:50:00;;;;;;;;;13.00;12.00;;;;;12.70;53.52;99967.94;5099377;27;45537;-67
2022/04/22 03:52:25;;;;;;;;;12.50;10.00;;;;;12.69;53.51;99969.69;5111741;27;45259;-67
2022/04/22 03:54:51;;;;;;;;;16.00;14.50;;;;;12.68;53.64;99972.38;5100654;27;45278;-67
2022/04/22 04:00:00;;;;;;;;;16.00;15.50;;;;;12.63;53.95;99970.00;5091173;27;45358;-67
2022/04/22 04:02:26;;;;;;;;;18.25;17.50;;;;;12.60;53.96;99970.13;5100427;27;46182;-67
2022/04/22 04:04:51;;;;;;;;;20.25;16.00;;;;;12.55;54.57;99976.47;5101481;27;45500;-67
2022/04/22 04:07:17;;;;;;;;;22.25;18.75;;;;;12.52;54.92;99971.41;5103461;27;45235;-67
2022/04/22 04:17:54;;;;;;;;;41.00;34.00;;;;;12.27;54.86;99971.75;5100322;27;45789;-67
2022/04/22 04:23:15;;;;;;;;;36.50;33.75;;;;;12.18;56.36;99965.19;5102963;27;45770;-67
2022/04/22 04:25:41;;;;;;;;;53.75;41.00;;;;;12.12;56.11;99962.88;5107576;27;45357;-67
2022/04/22 04:28:10;;;;;;;;;55.75;42.00;;;;;12.06;56.88;99958.78;5110323;27;45471;-67
2022/04/22 04:30:40;;;;;;;;;41.25;35.00;;;;;12.03;55.98;99958.94;5102652;27;45647;-68
2022/04/22 04:33:07;;;;;;;;;53.25;41.75;;;;;12.02;56.49;99959.84;5102292;27;45240;-68
2022/04/22 04:35:34;;;;;;;;;53.50;43.50;;;;;11.99;56.46;99949.56;5102559;27;45751;-68
2022/04/22 04:38:00;;;;;;;;;52.00;41.00;;;;;12.01;56.53;99957.28;5102864;27;45407;-67
2022/04/22 04:40:25;;;;;;;;;57.00;44.00;;;;;11.98;56.44;99947.03;5102531;27;45478;-67
2022/04/22 04:42:54;;;;;;;;;44.25;38.00;;;;;11.96;58.01;99954.06;5102189;27;46171;-67
2022/04/22 04:45:20;;;;;;;;;53.75;42.75;;;;;11.93;58.01;99957.66;5102325;27;45377;-67
2022/04/22 04:47:46;;;;;;;;;46.50;40.75;;;;;11.90;56.63;99959.56;5102172;27;45247;-67
2022/04/22 04:50:13;;;;;;;;;50.75;38.75;;;;;11.90;57.04;99949.16;5102781;27;45290;-68
2022/04/22 04:52:39;;;;;;;;;44.00;34.75;;;;;11.88;56.40;99957.88;5102325;27;46444;-67
2022/04/22 04:55:06;;;;;;;;;49.50;39.75;;;;;11.88;56.42;99947.47;5100501;27;45443;-67
2022/04/22 04:57:32;;;;;;;;;31.25;29.25;;;;;11.90;57.00;99952.59;5101033;27;45303;-67
2022/04/22 04:59:57;;;;;;;;;42.50;35.25;;;;;11.87;57.71;99948.38;5109776;27;45598;-67
2022/04/22 05:02:22;;;;;;;;;43.25;36.50;;;;;11.85;58.35;99947.59;5100012;27;47248;-64
2022/04/22 05:04:48;;;;;;;;;35.75;35.00;;;;;11.83;58.21;99944.22;5102122;27;45441;-68
2022/04/22 05:07:13;;;;;;;;;30.50;25.50;;;;;11.82;58.02;99942.53;5102061;27;45329;-67
2022/04/22 05:09:39;;;;;;;;;30.75;27.75;;;;;11.83;57.36;99939.03;5101969;27;45248;-68
2022/04/22 05:12:04;;;;;;;;;35.50;32.00;;;;;11.86;58.08;99938.03;5100819;27;46656;-65
2022/04/22 05:14:30;;;;;;;;;35.75;28.50;;;;;11.86;58.76;99941.47;5102325;27;45241;-69
2022/04/22 05:16:55;;;;;;;;;35.50;29.75;;;;;11.87;57.95;99940.56;5102364;27;45590;-68
2022/04/22 05:19:22;;;;;;;;;29.00;25.75;;;;;11.93;59.22;99942.03;5100618;27;45315;-67
2022/04/22 05:21:48;;;;;;;;;25.00;22.25;;;;;11.93;59.19;99934.22;5102281;27;46420;-67
2022/04/22 05:24:13;;;;;;;;;27.50;23.00;;;;;11.94;57.81;99933.31;5102281;27;45203;-67
2022/04/22 05:26:39;;;;;;;;;33.00;24.25;;;;;11.97;57.10;99938.38;5102506;27;45310;-70
2022/04/22 05:29:04;;;;;;;;;30.00;23.50;;;;;12.02;57.63;99943.38;5090646;27;45592;-68
2022/04/22 05:34:13;;;;;;;;;28.50;23.75;;;;;12.06;58.25;99937.13;5089263;27;45227;-68
2022/04/22 05:36:39;;;;;;;;;16.00;15.75;;;;;12.07;58.44;99933.59;5103166;27;45437;-67
2022/04/22 05:39:08;;;;;;;;;24.00;18.50;;;;;12.12;58.07;99929.00;5114629;27;45148;-68
2022/04/22 05:41:35;;;;;;;;;20.25;18.75;;;;;12.14;57.36;99938.44;5101539;27;45442;-76
2022/04/22 05:44:02;;;;;;;;;15.75;15.75;;;;;12.19;59.02;99935.59;5100604;27;45768;-73
2022/04/22 05:46:28;;;;;;;;;20.25;17.00;;;;;12.23;57.77;99936.34;5102236;27;45231;-74
2022/04/22 05:48:53;;;;;;;;;22.50;16.50;;;;;12.28;57.89;99942.16;5100191;27;45498;-69
2022/04/22 05:51:19;;;;;;;;;22.75;19.00;;;;;12.33;57.46;99943.63;5099749;27;48052;-74
2022/04/22 05:53:48;;;;;;;;;19.25;16.00;;;;;12.35;58.44;99931.38;5100154;27;45628;-69
2022/04/22 05:56:13;;;;;;;;;16.50;14.25;;;;;12.41;57.96;99931.09;5101507;27;45409;-72
2022/04/22 05:58:39;;;;;;;;;18.25;17.00;;;;;12.41;58.56;99927.63;5102672;27;45525;-70
2022/04/22 06:01:04;;;;;;;;;19.25;16.50;;;;;12.49;58.43;99941.16;5087858;27;45400;-70
2022/04/22 06:03:30;;;;;;;;;16.00;15.00;;;;;12.55;58.30;99945.22;5101899;27;45544;-71
2022/04/22 06:05:55;;;;;;;;;17.00;17.00;;;;;12.60;58.82;99946.66;5100114;27;45334;-73
2022/04/22 06:11:05;;;;;;;;;21.00;17.25;;;;;12.72;58.84;99955.66;5101228;27;45882;-69
2022/04/22 06:13:30;;;;;;;;;18.75;16.00;;;;;12.74;58.09;99948.59;5101239;27;45443;-73
2022/04/22 06:15:56;;;;;;;;;18.75;17.00;;;;;12.79;58.34;99949.22;5101326;27;45349;-69
2022/04/22 06:18:23;;;;;;;;;15.00;14.50;;;;;12.92;57.84;99955.53;5100993;27;45515;-69
2022/04/22 06:20:50;;;;;;;;;17.00;14.50;;;;;13.00;57.60;99957.75;5099737;27;47128;-70
2022/04/22 06:23:17;;;;;;;;;20.00;16.25;;;;;13.06;57.64;99945.25;5101253;27;45467;-69
2022/04/22 06:25:46;;;;;;;;;15.25;13.00;;;;;13.17;57.29;99943.84;5094163;27;45429;-64
2022/04/22 06:28:12;;;;;;;;;17.25;17.25;;;;;13.24;56.97;99942.69;5082706;27;45439;-68
2022/04/22 06:30:38;;;;;;;;;18.00;15.00;;;;;13.25;57.08;99945.22;5101068;27;46663;-68
2022/04/22 06:33:05;;;;;;;;;17.50;14.00;;;;;13.28;56.46;99946.81;5101052;27;45209;-68
2022/04/22 06:35:31;;;;;;;;;21.75;18.50;;;;;13.30;56.75;99945.81;5101080;27;45299;-67
2022/04/22 06:37:57;;;;;;;;;17.00;14.50;;;;;13.37;57.25;99951.53;5113558;27;45309;-68
2022/04/22 06:45:55;;;;;;;;;22.00;15.00;;;;;13.59;56.46;99941.66;5101081;27;45369;-67
2022/04/22 06:48:35;;;;;;;;;19.25;15.50;;;;;13.64;56.63;99937.06;5100519;27;45232;-67
2022/04/22 06:51:02;;;;;;;;;15.75;15.25;;;;;13.65;56.69;99938.75;5100713;27;46396;-68
2022/04/22 06:53:28;;;;;;;;;18.00;17.50;;;;;13.66;56.26;99940.44;5100488;27;45317;-64
2022/04/22 06:55:58;;;;;;;;;18.50;15.75;;;;;13.75;55.51;99939.09;5100734;27;45306;-66
2022/04/22 06:58:25;;;;;;;;;14.75;14.00;;;;;13.81;56.56;99940.53;5100326;27;45387;-67
2022/04/22 07:00:51;;;;;;;;;18.75;16.75;;;;;13.89;56.23;99940.97;5114030;27;46227;-67
2022/04/22 07:03:17;;;;;;;;;20.00;17.50;;;;;13.98;56.00;99940.47;5100603;27;45354;-67
2022/04/22 07:05:45;;;;;;;;;16.25;16.25;;;;;14.04;55.93;99940.16;5100979;27;45298;-67
2022/04/22 07:08:14;;;;;;;;;16.50;14.50;;;;;14.15;55.72;99940.41;5101085;27;45459;-66
2022/04/22 07:10:43;;;;;;;;;20.25;16.00;;;;;14.18;55.78;99929.78;5100249;27;45334;-67
2022/04/22 07:13:10;;;;;;;;;14.25;13.00;;;;;14.28;55.30;99936.19;5099131;27;45379;-67
2022/04/22 07:15:36;;;;;;;;;18.25;17.00;;;;;14.36;54.84;99924.47;5100645;27;45199;-68
2022/04/22 07:18:02;;;;;;;;;19.00;17.25;;;;;14.46;55.36;99923.06;5100471;27;45192;-70
2022/04/22 07:20:28;;;;;;;;;14.50;14.25;;;;;14.54;55.04;99923.44;5100323;27;46346;-67
2022/04/22 07:22:53;;;;;;;;;20.50;19.50;;;;;14.61;54.77;99915.16;5099925;27;45344;-68
2022/04/22 07:25:20;;;;;;;;;14.50;13.00;;;;;14.68;54.42;99918.28;5100231;27;45314;-71
2022/04/22 07:27:46;;;;;;;;;16.75;14.50;;;;;14.74;54.14;99925.78;5099586;27;45614;-67
2022/04/22 07:30:14;;;;;;;;;16.25;14.25;;;;;14.81;53.99;99929.72;5099643;27;45517;-67
2022/04/22 07:32:40;;;;;;;;;16.75;14.50;;;;;14.92;53.57;99934.34;5099409;27;45526;-67
2022/04/22 07:35:12;;;;;;;;;19.50;16.50;;;;;15.04;53.40;99935.41;5100418;27;45214;-66
2022/04/22 07:37:38;;;;;;;;;19.25;15.25;;;;;15.14;53.49;99932.13;5097202;27;45487;-67
2022/04/22 07:40:04;;;;;;;;;14.00;13.00;;;;;15.20;52.94;99934.38;5095708;27;47996;-66
2022/04/22 07:42:33;;;;;;;;;23.25;19.00;;;;;15.29;52.80;99937.41;5099500;27;45933;-65
2022/04/22 07:47:47;;;;;;;;;17.75;15.00;;;;;15.47;52.38;99928.44;5094410;27;45723;-66
2022/04/22 07:50:14;;;;;;;;;17.00;14.00;;;;;15.55;52.41;99928.81;5100511;27;45365;-66
2022/04/22 07:52:40;;;;;;;;;21.25;18.00;;;;;15.58;52.05;99925.16;5099016;27;45911;-66
2022/04/22 07:55:06;;;;;;;;;14.00;12.50;;;;;15.60;51.90;99932.03;5095177;27;45369;-65
2022/04/22 07:57:31;;;;;;;;;14.50;14.25;;;;;15.65;51.75;99923.91;5098797;27;45545;-66
2022/04/22 07:59:57;;;;;;;;;18.00;15.50;;;;;15.76;51.65;99922.28;5099012;27;45165;-66
2022/04/22 08:02:24;;;;;;;;;20.00;14.50;;;;;15.87;51.61;99924.25;5098760;27;45648;-66
2022/04/22 08:04:50;;;;;;;;;18.00;16.00;;;;;15.97;51.33;99919.28;5099348;27;45327;-65
2022/04/22 08:07:16;;;;;;;;;19.75;15.25;;;;;16.11;50.61;99930.56;5100018;27;45291;-65
2022/04/22 08:09:44;;;;;;;;;18.00;16.00;;;;;16.17;50.47;99926.72;5099721;27;45583;-67
2022/04/22 08:12:12;;;;;;;;;18.75;15.50;;;;;16.23;50.50;99930.75;5099672;27;45200;-68
2022/04/22 08:14:37;;;;;;;;;16.75;16.00;;;;;16.26;50.29;99927.94;5098973;27;45345;-67
2022/04/22 08:17:03;;;;;;;;;17.75;16.75;;;;;16.26;50.22;99935.78;5099449;27;45435;-67
2022/04/22 08:19:28;;;;;;;;;16.75;15.75;;;;;16.29;49.90;99925.94;5105300;27;46169;-67
2022/04/22 08:21:54;;;;;;;;;18.75;15.50;;;;;16.40;49.95;99925.25;5098883;27;45215;-67
2022/04/22 08:24:19;;;;;;;;;19.75;18.25;;;;;16.48;49.82;99919.50;5099282;27;45313;-66
2022/04/22 08:26:45;;;;;;;;;19.00;16.00;;;;;16.54;49.69;99921.72;5099217;27;45187;-71
2022/04/22 08:29:11;;;;;;;;;16.25;13.25;;;;;16.58;49.17;99921.44;5087658;27;45453;-70
2022/04/22 08:31:37;;;;;;;;;20.75;14.00;;;;;16.65;48.65;99912.22;5091069;27;45820;-68
2022/04/22 08:34:02;;;;;;;;;17.25;16.25;;;;;16.73;48.37;99909.13;5099358;27;45465;-70
2022/04/22 08:36:29;;;;;;;;;16.75;14.00;;;;;16.82;47.80;99900.66;5099479;27;45532;-70
2022/04/22 08:38:57;;;;;;;;;19.75;15.50;;;;;16.81;46.69;99906.81;5099488;27;45362;-70
2022/04/22 08:41:24;;;;;;;;;17.00;16.50;;;;;16.85;47.57;99903.06;5090449;27;46296;-70
2022/04/22 08:43:56;;;;;;;;;10.00;9.75;;;;;16.87;47.28;99901.19;5091866;27;45208;-68
2022/04/22 08:51:51;;;;;;;;;12.75;12.75;;;;;16.86;47.01;99896.03;5102995;27;45164;-70
2022/04/22 08:54:19;;;;;;;;;18.25;15.25;;;;;16.90;46.64;99889.63;5103175;27;45412;-70
2022/04/22 08:56:46;;;;;;;;;14.75;13.75;;;;;16.90;46.19;99892.25;5102558;27;45393;-70
2022/04/22 08:59:11;;;;;;;;;14.75;11.25;;;;;16.93;46.13;99894.69;5102450;27;46269;-70
2022/04/22 09:01:37;;;;;;;;;16.25;13.25;;;;;16.94;46.15;99889.31;5101312;27;45265;-71
2022/04/22 09:04:04;;;;;;;;;21.00;16.00;;;;;16.99;46.11;99889.00;5102680;27;45448;-71
2022/04/22 09:06:30;;;;;;;;;12.00;12.00;;;;;17.08;45.82;99898.91;5102432;27;45444;-71
2022/04/22 09:08:57;;;;;;;;;14.75;13.00;;;;;17.14;45.24;99890.59;5101012;27;47033;-71
2022/04/22 09:11:23;;;;;;;;;14.50;13.00;;;;;17.19;45.13;99888.50;5102459;27;45830;-71
2022/04/22 09:13:49;;;;;;;;;13.00;10.00;;;;;17.27;44.94;99891.44;5102273;27;45229;-71
2022/04/22 09:16:21;;;;;;;;;18.50;15.00;;;;;17.34;44.87;99876.94;5102740;27;45495;-71
2022/04/22 09:18:47;;;;;;;;;12.00;10.25;;;;;17.42;44.78;99888.69;5102019;27;45430;-71
2022/04/22 09:21:16;;;;;;;;;10.25;10.00;;;;;17.46;44.86;99882.31;5102362;27;45282;-71
2022/04/22 09:23:42;;;;;;;;;13.00;12.00;;;;;17.51;44.07;99886.28;5104048;27;45323;-71
2022/04/22 09:26:22;;;;;;;;;13.25;12.00;;;;;17.55;43.54;99882.50;5105613;27;45285;-71
2022/04/22 09:29:06;;;;;;;;;14.25;13.00;;;;;17.70;44.14;99880.59;5097621;27;45617;-74
2022/04/22 09:31:46;;;;;;;;;14.25;11.25;;;;;17.83;43.93;99881.44;5101749;27;45177;-74
2022/04/22 09:34:12;;;;;;;;;11.00;9.00;;;;;17.83;43.81;99883.22;5102258;27;45275;-73
2022/04/22 09:44:57;;;;;;;;;9.00;7.25;;;;;17.80;41.69;99871.09;5102091;27;45175;-70
2022/04/22 09:47:30;;;;;;;;;10.50;8.75;;;;;17.80;41.38;99865.00;5101770;27;45381;-69
2022/04/22 09:49:56;;;;;;;;;10.50;10.50;;;;;17.80;40.84;99868.47;5100593;27;46617;-69
2022/04/22 09:52:29;;;;;;;;;9.75;9.75;;;;;17.86;41.64;99865.44;5092486;27;45664;-69
2022/04/22 09:54:56;;;;;;;;;10.00;10.00;;;;;17.93;41.27;99871.09;5095132;27;45413;-69
2022/04/22 09:57:21;;;;;;;;;12.00;9.00;;;;;17.93;40.63;99871.94;5101730;27;45237;-69
2022/04/22 09:59:47;;;;;;;;;9.50;9.25;;;;;17.86;41.05;99868.06;5100160;27;46091;-69
2022/04/22 10:02:21;;;;;;;;;6.00;6.00;;;;;17.86;40.93;99864.59;5093831;27;45248;-69
2022/04/22 10:04:48;;;;;;;;;10.75;10.75;;;;;17.90;40.62;99860.78;5101714;27;45218;-69
2022/04/22 10:07:16;;;;;;;;;10.00;9.00;;;;;17.96;40.53;99862.97;5101661;27;45285;-69
2022/04/22 10:09:48;;;;;;;;;7.00;7.00;;;;;17.98;39.96;99858.44;5101315;27;45274;-69
2022/04/22 10:12:18;;;;;;;;;9.25;8.25;;;;;18.04;39.36;99850.13;5101265;27;45237;-77
2022/04/22 10:14:46;;;;;;;;;9.75;8.00;;;;;18.14;39.99;99852.91;5101752;27;45272;-68
2022/04/22 10:17:12;;;;;;;;;7.25;6.00;;;;;18.19;39.24;99856.03;5101137;27;45404;-67
2022/04/22 10:19:38;;;;;;;;;7.75;7.00;;;;;18.21;39.16;99859.41;5099686;27;47872;-66
2022/04/22 10:22:07;;;;;;;;;9.00;7.00;;;;;18.28;39.57;99846.66;5100902;27;45230;-67
2022/04/22 10:24:32;;;;;;;;;8.50;8.50;;;;;18.41;39.13;99836.88;5100370;27;45358;-68
2022/04/22 10:27:00;;;;;;;;;8.25;8.25;;;;;18.50;38.88;99846.75;5099611;27;45472;-70
2022/04/22 10:29:29;;;;;;;;;10.00;8.00;;;;;18.52;38.39;99837.78;5090813;27;46101;-69
2022/04/22 10:31:56;;;;;;;;;9.00;5.75;;;;;18.64;40.07;99838.69;5100850;27;45855;-55
2022/04/22 10:34:36;;;;;;;;;9.75;8.00;;;;;18.81;40.75;99837.41;5109650;27;45326;-57
2022/04/22 10:37:02;;;;;;;;;8.50;7.50;;;;;19.06;39.36;99825.84;5103016;27;45438;-56
2022/04/22 10:39:37;;;;;;;;;9.50;6.50;;;;;19.23;39.77;99835.91;5100708;27;45298;-56
2022/04/22 10:42:13;;;;;;;;;7.50;7.50;;;;;19.36;38.73;99833.16;5100289;27;45664;-55
2022/04/22 10:47:41;;;;;;;;;6.25;5.75;;;;;19.47;40.20;99832.31;5098332;27;45536;-56
2022/04/22 10:50:58;;;;;;;;;9.50;8.25;;;;;19.58;40.19;99827.91;5099080;27;46417;-56
2022/04/22 10:53:29;;;;;;;;;12.00;8.25;;;;;19.57;38.19;99831.50;5056203;28;45226;-56
2022/04/22 10:56:29;;;;;;;;;9.00;9.00;;;;;19.61;36.26;99840.81;5038988;28;45349;-56
2022/04/22 10:59:14;;;;;;;;;6.75;6.25;;;;;19.60;37.76;99841.78;5089613;27;45275;-56
2022/04/22 11:01:40;;;;;;;;;9.00;7.00;;;;;19.61;38.61;99832.91;5096296;27;47386;-55
2022/04/22 11:04:17;;;;;;;;;8.75;7.00;;;;;19.64;37.19;99834.50;5098815;27;45552;-55
2022/04/22 11:06:43;;;;;;;;;8.00;7.00;;;;;19.66;35.83;99830.78;5097650;27;45384;-56
2022/04/22 11:09:08;;;;;;;;;9.50;9.00;;;;;19.66;38.12;99828.13;5100127;27;45414;-55
2022/04/22 11:11:40;;;;;;;;;8.25;8.25;;;;;19.84;36.16;99815.28;5100557;27;46428;-55
2022/04/22 11:14:20;;;;;;;;;11.00;8.00;;;;;19.94;37.30;99812.72;5100119;27;45660;-55
2022/04/22 11:16:46;;;;;;;;;8.00;7.75;;;;;20.06;37.09;99806.47;5100372;27;45212;-56
2022/04/22 11:19:17;;;;;;;;;6.25;6.00;;;;;20.09;35.72;99808.84;5100716;27;45242;-56
2022/04/22 11:21:45;;;;;;;;;5.00;5.00;;;;;20.12;37.28;99813.88;5100221;27;46213;-56
2022/04/22 11:24:15;;;;;;;;;7.00;7.00;;;;;20.20;37.38;99816.72;5108033;27;45246;-56
2022/04/22 11:26:41;;;;;;;;;8.25;5.75;;;;;20.26;35.14;99812.75;5105043;27;45374;-56
2022/04/22 11:29:08;;;;;;;;;12.00;9.00;;;;;20.31;37.13;99815.84;5089659;27;45322;-56
2022/04/22 11:31:35;;;;;;;;;9.00;9.00;;;;;20.40;36.48;99803.66;5100220;27;45534;-57
2022/04/22 11:34:08;;;;;;;;;6.00;6.00;;;;;20.44;36.77;99805.97;5099864;27;45237;-56
2022/04/22 11:36:47;;;;;;;;;5.00;5.00;;;;;20.38;36.81;99802.97;5099893;27;45329;-56
2022/04/22 11:39:22;;;;;;;;;9.50;8.50;;;;;20.34;35.95;99805.03;5100218;27;45439;-56
2022/04/22 11:41:58;;;;;;;;;7.25;7.25;;;;;20.39;36.41;99802.84;5097227;27;45858;-55
2022/04/22 11:44:24;;;;;;;;;7.75;7.00;;;;;20.41;36.48;99792.19;5096706;27;45235;-55
2022/04/22 11:46:51;;;;;;;;;6.00;6.00;;;;;20.54;36.50;99803.41;5100029;27;45236;-55
2022/04/22 11:49:16;;;;;;;;;13.00;10.25;;;;;20.58;36.16;99796.88;5099922;27;45506;-55
2022/04/22 11:51:42;;;;;;;;;6.75;6.75;;;;;20.59;36.00;99799.41;5099693;27;46097;-55
2022/04/22 11:54:07;;;;;;;;;11.25;11.00;;;;;20.67;37.27;99798.78;5099885;27;45302;-56
2022/04/22 11:56:35;;;;;;;;;7.00;6.00;;;;;20.79;35.33;99789.78;5100109;27;45321;-64
2022/04/22 11:59:01;;;;;;;;;7.00;6.75;;;;;20.74;35.62;99797.28;5099946;27;45461;-65
2022/04/22 12:09:58;;;;;;;;;6.50;6.25;;;;;20.32;34.92;99791.97;5099838;27;45215;-63
2022/04/22 12:12:24;;;;;;;;;7.75;7.25;;;;;20.34;34.63;99787.38;5099341;27;46379;-64
2022/04/22 12:14:59;;;;;;;;;7.00;6.75;;;;;20.40;36.03;99785.19;5099821;27;45472;-61
2022/04/22 12:17:24;;;;;;;;;7.50;7.50;;;;;20.43;35.16;99780.56;5099488;27;45348;-60
2022/04/22 12:19:50;;;;;;;;;10.75;9.50;;;;;20.43;35.58;99783.19;5099404;27;45235;-60
2022/04/22 12:22:15;;;;;;;;;7.00;5.00;;;;;20.45;34.94;99780.44;5098987;27;46302;-61